createdAt,value
2022-09-07T00:01:26.918Z,3.60
2022-09-07T00:03:58.010Z,4.37
2022-09-07T00:06:25.247Z,4.10
2022-09-07T00:08:52.130Z,4.13
2022-09-07T00:11:20.122Z,3.87
2022-09-07T00:13:49.388Z,3.50
2022-09-07T00:16:21.952Z,3.70
2022-09-07T00:18:48.905Z,3.60
2022-09-07T00:21:17.781Z,4.40
2022-09-07T00:23:45.055Z,3.17
2022-09-07T00:26:14.676Z,3.97
2022-09-07T00:28:42.112Z,3.77
2022-09-07T00:31:15.171Z,4.00
2022-09-07T00:33:42.626Z,4.40
2022-09-07T00:36:09.525Z,3.93
2022-09-07T00:38:36.810Z,4.53
2022-09-07T00:41:04.382Z,4.27
2022-09-07T00:43:39.292Z,2.90
2022-09-07T00:46:10.653Z,3.80
2022-09-07T00:49:08.124Z,4.40
2022-09-07T00:51:43.847Z,4.20
2022-09-07T00:54:15.515Z,3.30
2022-09-07T00:56:44.128Z,3.57
2022-09-07T00:59:16.247Z,3.77
2022-09-07T01:01:43.248Z,3.37
2022-09-07T01:04:10.290Z,3.37
2022-09-07T01:06:39.666Z,4.63
2022-09-07T01:09:10.395Z,3.83
2022-09-07T01:11:38.349Z,3.40
2022-09-07T01:14:10.671Z,3.73
2022-09-07T01:17:08.282Z,4.03
2022-09-07T01:19:47.484Z,3.87
2022-09-07T01:22:51.666Z,3.60
2022-09-07T01:25:30.708Z,3.10
2022-09-07T01:28:07.147Z,3.50
2022-09-07T01:30:37.573Z,3.93
2022-09-07T01:33:25.583Z,4.30
2022-09-07T01:36:09.352Z,3.10
2022-09-07T01:38:44.812Z,3.60
2022-09-07T01:41:38.228Z,3.10
2022-09-07T01:44:20.686Z,2.97
2022-09-07T01:46:54.250Z,4.17
2022-09-07T01:49:32.227Z,3.47
2022-09-07T01:52:05.163Z,3.13
2022-09-07T01:54:42.078Z,3.73
2022-09-07T01:57:18.783Z,3.97
2022-09-07T02:00:16.247Z,3.80
2022-09-07T02:02:59.540Z,4.17
2022-09-07T02:05:43.099Z,3.67
2022-09-07T02:08:16.588Z,4.20
2022-09-07T02:10:55.255Z,4.10
2022-09-07T02:13:29.641Z,3.88
2022-09-07T02:16:10.994Z,2.65
2022-09-07T02:18:44.897Z,4.53
2022-09-07T02:21:14.718Z,3.77
2022-09-07T02:23:50.737Z,4.00
2022-09-07T02:26:21.673Z,4.07
2022-09-07T02:28:48.885Z,4.03
2022-09-07T02:31:16.309Z,3.70
2022-09-07T02:33:43.517Z,3.95
2022-09-07T02:36:12.384Z,3.50
2022-09-07T02:38:39.634Z,3.92
2022-09-07T02:41:26.819Z,3.47
2022-09-07T02:43:53.776Z,3.17
2022-09-07T02:46:31.216Z,4.25
2022-09-07T02:49:07.097Z,4.20
2022-09-07T02:52:01.947Z,3.17
2022-09-07T02:55:03.154Z,3.53
2022-09-07T02:58:04.758Z,3.90
2022-09-07T03:00:38.074Z,3.53
2022-09-07T03:03:13.481Z,3.35
2022-09-07T03:05:55.831Z,3.75
2022-09-07T03:08:50.722Z,3.83
2022-09-07T03:11:18.017Z,3.53
2022-09-07T03:13:44.997Z,3.75
2022-09-07T03:16:15.882Z,3.95
2022-09-07T03:18:43.688Z,4.68
2022-09-07T03:21:11.067Z,4.18
2022-09-07T03:23:37.955Z,4.35
2022-09-07T03:26:05.265Z,3.63
2022-09-07T03:28:32.273Z,3.85
2022-09-07T03:30:59.328Z,4.57
2022-09-07T03:33:26.261Z,3.83
2022-09-07T03:36:02.840Z,4.03
2022-09-07T03:38:31.068Z,3.55
2022-09-07T03:41:00.158Z,3.90
2022-09-07T03:43:27.603Z,3.92
2022-09-07T03:46:05.967Z,4.18
2022-09-07T03:48:37.340Z,4.20
2022-09-07T03:51:07.930Z,3.58
2022-09-07T03:53:37.284Z,3.95
2022-09-07T03:56:07.425Z,4.20
2022-09-07T03:58:35.038Z,3.80
2022-09-07T04:01:10.279Z,4.32
2022-09-07T04:03:37.924Z,4.07
2022-09-07T04:06:05.463Z,4.07
2022-09-07T04:08:34.196Z,4.03
2022-09-07T04:11:03.045Z,4.95
2022-09-07T04:13:31.428Z,4.10
2022-09-07T04:15:58.645Z,4.50
2022-09-07T04:18:25.827Z,4.10
2022-09-07T04:20:52.813Z,4.32
2022-09-07T04:23:20.060Z,4.03
2022-09-07T04:25:51.971Z,3.70
2022-09-07T04:28:21.081Z,4.20
2022-09-07T04:30:48.422Z,3.50
2022-09-07T04:33:15.547Z,3.63
2022-09-07T04:35:43.454Z,4.30
2022-09-07T04:38:14.410Z,4.00
2022-09-07T04:40:41.685Z,5.68
2022-09-07T04:43:09.641Z,4.80
2022-09-07T04:45:37.444Z,3.85
2022-09-07T04:48:05.228Z,4.00
2022-09-07T04:50:32.398Z,3.72
2022-09-07T04:52:59.209Z,4.35
2022-09-07T04:55:26.328Z,6.43
2022-09-07T04:57:53.189Z,4.80
2022-09-07T05:00:20.150Z,4.85
2022-09-07T05:02:47.089Z,5.30
2022-09-07T05:05:14.181Z,4.57
2022-09-07T05:07:41.128Z,5.45
2022-09-07T05:10:08.386Z,4.70
2022-09-07T05:12:35.240Z,4.07
2022-09-07T05:15:02.075Z,4.40
2022-09-07T05:17:31.112Z,4.30
2022-09-07T05:19:58.414Z,4.45
2022-09-07T05:22:25.332Z,4.07
2022-09-07T05:24:52.249Z,4.30
2022-09-07T05:27:19.175Z,4.28
2022-09-07T05:30:03.547Z,4.30
2022-09-07T05:32:31.402Z,4.78
2022-09-07T05:34:58.306Z,5.88
2022-09-07T05:37:25.220Z,4.53
2022-09-07T05:39:56.300Z,4.22
2022-09-07T05:42:23.250Z,3.85
2022-09-07T05:44:50.099Z,5.07
2022-09-07T05:47:16.964Z,4.18
2022-09-07T05:49:43.847Z,5.03
2022-09-07T05:52:10.895Z,4.70
2022-09-07T05:54:37.764Z,4.72
2022-09-07T05:57:04.889Z,4.07
2022-09-07T05:59:31.834Z,4.00
2022-09-07T06:01:59.081Z,5.53
2022-09-07T06:04:26.108Z,5.78
2022-09-07T06:07:18.047Z,5.55
2022-09-07T06:12:27.742Z,5.77
2022-09-07T06:14:54.780Z,6.23
2022-09-07T06:17:21.725Z,5.80
2022-09-07T06:19:48.763Z,5.70
2022-09-07T06:22:15.609Z,6.60
2022-09-07T06:24:42.569Z,6.50
2022-09-07T06:27:09.506Z,6.70
2022-09-07T06:29:36.353Z,6.23
2022-09-07T06:34:50.202Z,6.30
2022-09-07T06:37:17.303Z,6.20
2022-09-07T06:39:44.268Z,6.13
2022-09-07T06:42:11.576Z,5.30
2022-09-07T06:44:38.494Z,5.50
2022-09-07T06:47:05.395Z,5.57
2022-09-07T06:49:32.407Z,5.07
2022-09-07T06:51:59.307Z,4.40
2022-09-07T06:57:13.092Z,5.13
2022-09-07T06:59:39.957Z,4.40
2022-09-07T07:02:09.856Z,4.10
2022-09-07T07:04:40.872Z,4.30
2022-09-07T07:07:12.617Z,4.00
2022-09-07T07:09:40.085Z,4.10
2022-09-07T07:12:07.120Z,3.57
2022-09-07T07:14:37.198Z,3.30
2022-09-07T07:17:05.512Z,3.13
2022-09-07T07:19:32.445Z,4.03
2022-09-07T07:22:14.324Z,3.10
2022-09-07T07:24:46.095Z,3.40
2022-09-07T07:27:13.163Z,2.67
2022-09-07T07:29:40.043Z,2.83
2022-09-07T07:32:06.913Z,2.80
2022-09-07T07:34:33.767Z,1.80
2022-09-07T07:37:00.602Z,1.90
2022-09-07T07:42:14.193Z,1.50
2022-09-07T07:44:40.993Z,1.37
2022-09-07T07:47:07.953Z,1.70
2022-09-07T07:49:34.798Z,1.40
2022-09-07T07:54:48.870Z,1.40
2022-09-07T07:57:18.910Z,1.70
2022-09-07T07:59:45.996Z,1.50
2022-09-07T08:02:16.298Z,2.23
2022-09-07T08:04:43.688Z,1.27
2022-09-07T08:07:14.132Z,1.00
2022-09-07T08:09:42.826Z,1.33
2022-09-07T08:12:13.148Z,0.80
2022-09-07T08:14:43.133Z,1.50
2022-09-07T08:17:15.937Z,1.60
2022-09-07T08:19:43.338Z,1.00
2022-09-07T08:22:12.013Z,1.10
2022-09-07T08:24:39.235Z,1.27
2022-09-07T08:27:06.453Z,0.77
2022-09-07T08:29:35.189Z,1.23
2022-09-07T08:32:04.230Z,0.80
2022-09-07T08:34:31.286Z,0.70
2022-09-07T08:36:58.417Z,0.90
2022-09-07T08:39:25.352Z,0.90
2022-09-07T08:42:05.377Z,0.93
2022-09-07T08:44:34.587Z,0.87
2022-09-07T08:47:19.775Z,1.10
2022-09-07T08:49:49.176Z,0.90
2022-09-07T08:52:27.476Z,0.80
2022-09-07T08:55:17.783Z,0.87
2022-09-07T08:57:52.510Z,1.57
2022-09-07T09:00:20.064Z,0.90
2022-09-07T09:03:28.629Z,0.83
2022-09-07T09:05:57.253Z,0.80
2022-09-07T09:09:10.090Z,1.30
2022-09-07T09:11:58.591Z,0.90
2022-09-07T09:14:52.980Z,0.90
2022-09-07T09:18:01.272Z,0.80
2022-09-07T09:20:54.413Z,1.10
2022-09-07T09:23:26.778Z,0.90
2022-09-07T09:25:56.171Z,0.80
2022-09-07T09:28:25.604Z,1.17
2022-09-07T09:30:54.878Z,0.97
2022-09-07T09:33:27.487Z,0.80
2022-09-07T09:36:00.399Z,0.83
2022-09-07T09:38:36.491Z,0.87
2022-09-07T09:41:07.098Z,0.80
2022-09-07T09:43:53.941Z,0.60
2022-09-07T09:46:31.335Z,0.70
2022-09-07T09:49:00.277Z,0.90
2022-09-07T09:54:33.180Z,1.17
2022-09-07T09:57:00.681Z,0.90
2022-09-07T10:05:40.409Z,0.83
2022-09-07T10:08:20.461Z,1.00
2022-09-07T10:11:07.698Z,0.70
2022-09-07T10:13:42.341Z,0.80
2022-09-07T10:16:10.608Z,1.00
2022-09-07T10:18:53.938Z,0.90
2022-09-07T10:21:31.863Z,0.70
2022-09-07T10:24:04.626Z,2.50
2022-09-07T10:26:37.805Z,0.80
2022-09-07T10:29:36.024Z,0.80
2022-09-07T10:32:20.919Z,0.70
2022-09-07T10:35:18.468Z,0.73
2022-09-07T10:38:15.122Z,0.70
2022-09-07T10:41:01.084Z,1.63
2022-09-07T10:43:44.419Z,0.83
2022-09-07T10:49:25.127Z,0.93
2022-09-07T10:52:09.288Z,0.70
2022-09-07T10:54:41.792Z,0.70
2022-09-07T10:57:23.643Z,0.70
2022-09-07T11:00:10.539Z,1.00
2022-09-07T11:03:35.322Z,1.13
2022-09-07T11:06:17.911Z,0.83
2022-09-07T11:09:17.883Z,0.80
2022-09-07T11:12:04.397Z,1.10
2022-09-07T11:14:42.838Z,0.70
2022-09-07T11:17:44.205Z,1.20
2022-09-07T11:20:37.673Z,1.10
2022-09-07T11:23:18.764Z,0.90
2022-09-07T11:25:46.721Z,0.70
2022-09-07T11:28:30.835Z,0.80
2022-09-07T11:31:01.786Z,0.80
2022-09-07T11:33:41.419Z,1.33
2022-09-07T11:36:19.921Z,1.00
2022-09-07T11:39:13.073Z,0.90
2022-09-07T11:41:52.531Z,1.13
2022-09-07T11:44:30.028Z,0.80
2022-09-07T11:47:04.363Z,0.90
2022-09-07T11:49:31.193Z,0.87
2022-09-07T11:52:05.487Z,0.80
2022-09-07T11:54:55.133Z,0.90
2022-09-07T11:57:41.863Z,1.10
2022-09-07T12:00:33.192Z,0.80
2022-09-07T12:03:29.499Z,0.90
2022-09-07T12:06:23.816Z,1.00
2022-09-07T12:09:16.485Z,0.80
2022-09-07T12:12:05.719Z,1.00
2022-09-07T12:15:01.961Z,1.00
2022-09-07T12:17:47.001Z,0.80
2022-09-07T12:20:18.184Z,0.90
2022-09-07T12:23:05.418Z,0.83
2022-09-07T12:25:34.275Z,0.83
2022-09-07T12:28:01.579Z,1.00
2022-09-07T12:30:30.263Z,0.90
2022-09-07T12:32:58.524Z,0.97
2022-09-07T12:35:32.517Z,0.97
2022-09-07T12:38:00.790Z,1.27
2022-09-07T12:40:30.597Z,0.90
2022-09-07T12:43:12.936Z,1.00
2022-09-07T12:45:39.724Z,1.40
2022-09-07T12:48:15.579Z,1.00
2022-09-07T12:51:10.182Z,1.13
2022-09-07T12:53:42.867Z,0.80
2022-09-07T12:56:28.428Z,0.90
2022-09-07T12:59:36.639Z,1.00
2022-09-07T13:02:35.811Z,0.90
2022-09-07T13:05:11.587Z,0.70
2022-09-07T13:08:09.529Z,0.80
2022-09-07T13:10:47.354Z,0.93
2022-09-07T13:17:15.939Z,0.80
2022-09-07T13:19:50.524Z,1.00
2022-09-07T13:22:32.419Z,1.03
2022-09-07T13:25:23.676Z,1.10
2022-09-07T13:28:25.589Z,0.90
2022-09-07T13:31:02.232Z,0.70
2022-09-07T13:33:29.185Z,0.80
2022-09-07T13:36:02.514Z,1.00
2022-09-07T13:38:32.161Z,1.00
2022-09-07T13:41:06.690Z,0.70
2022-09-07T13:43:35.926Z,1.40
2022-09-07T13:46:15.118Z,1.17
2022-09-07T13:48:49.046Z,0.70
2022-09-07T13:51:34.625Z,0.90
2022-09-07T13:54:26.832Z,1.17
2022-09-07T13:57:18.161Z,0.80
2022-09-07T13:59:47.191Z,0.80
2022-09-07T14:02:40.577Z,1.20
2022-09-07T14:05:10.312Z,1.13
2022-09-07T14:07:43.698Z,1.10
2022-09-07T14:10:23.044Z,1.20
2022-09-07T14:13:07.783Z,1.00
2022-09-07T14:15:41.465Z,0.87
2022-09-07T14:18:18.117Z,1.30
2022-09-07T14:20:54.281Z,1.30
2022-09-07T14:23:28.002Z,1.50
2022-09-07T14:26:17.208Z,1.30
2022-09-07T14:28:49.890Z,1.70
2022-09-07T14:31:20.007Z,1.40
2022-09-07T14:33:51.616Z,1.87
2022-09-07T14:39:09.186Z,1.40
2022-09-07T14:41:41.390Z,1.67
2022-09-07T14:44:27.414Z,1.90
2022-09-07T14:46:57.025Z,1.93
2022-09-07T14:49:24.658Z,1.80
2022-09-07T14:51:52.859Z,1.50
2022-09-07T14:54:21.014Z,1.70
2022-09-07T14:57:03.219Z,1.47
2022-09-07T14:59:47.855Z,1.27
2022-09-07T15:02:29.774Z,1.17
2022-09-07T15:05:15.146Z,1.20
2022-09-07T15:07:45.553Z,1.00
2022-09-07T15:10:13.185Z,1.07
2022-09-07T15:12:43.834Z,1.10
2022-09-07T15:15:22.086Z,1.10
2022-09-07T15:17:49.442Z,1.20
2022-09-07T15:20:31.866Z,0.90
2022-09-07T15:22:59.428Z,1.63
2022-09-07T15:25:26.608Z,1.10
2022-09-07T15:27:54.861Z,0.70
2022-09-07T15:30:21.731Z,1.00
2022-09-07T15:32:49.540Z,1.00
2022-09-07T15:35:16.450Z,1.20
2022-09-07T15:41:10.553Z,1.03
2022-09-07T15:43:33.855Z,1.07
2022-09-07T15:46:00.908Z,1.10
2022-09-07T15:48:27.814Z,0.87
2022-09-07T15:52:04.721Z,0.80
2022-09-07T15:56:42.394Z,1.10
2022-09-07T15:59:11.176Z,1.00
2022-09-07T16:01:55.299Z,0.90
2022-09-07T16:04:25.836Z,0.90
2022-09-07T16:06:52.742Z,1.00
2022-09-07T16:09:21.854Z,1.03
2022-09-07T16:11:50.039Z,1.40
2022-09-07T16:14:17.637Z,1.40
2022-09-07T16:19:34.900Z,1.20
2022-09-07T16:22:03.193Z,1.10
2022-09-07T16:24:30.476Z,1.73
2022-09-07T16:26:57.383Z,1.30
2022-09-07T16:29:24.740Z,1.57
2022-09-07T16:34:39.884Z,1.53
2022-09-07T16:37:07.432Z,1.30
2022-09-07T16:39:34.716Z,1.40
2022-09-07T16:42:01.592Z,1.57
2022-09-07T16:44:28.364Z,1.43
2022-09-07T16:46:55.241Z,1.47
2022-09-07T16:49:22.599Z,1.67
2022-09-07T16:51:49.901Z,1.20
2022-09-07T16:54:17.743Z,1.40
2022-09-07T16:56:44.673Z,1.20
2022-09-07T16:59:18.269Z,1.30
2022-09-07T17:01:45.217Z,1.50
2022-09-07T17:04:12.381Z,1.50
2022-09-07T17:06:40.071Z,1.10
2022-09-07T17:09:07.552Z,1.60
2022-09-07T17:11:37.997Z,1.07
2022-09-07T17:14:06.599Z,1.30
2022-09-07T17:16:37.221Z,1.33
2022-09-07T17:21:53.708Z,1.20
2022-09-07T17:24:20.829Z,1.30
2022-09-07T17:26:47.823Z,1.87
2022-09-07T17:29:15.032Z,1.60
2022-09-07T17:34:30.289Z,1.23
2022-09-07T17:36:57.714Z,1.60
2022-09-07T17:39:24.681Z,1.87
2022-09-07T17:41:53.098Z,1.37
2022-09-07T17:44:21.521Z,3.03
2022-09-07T17:46:48.310Z,1.70
2022-09-07T17:49:16.890Z,1.40
2022-09-07T17:51:44.820Z,1.60
2022-09-07T17:54:14.807Z,1.60
2022-09-07T17:56:42.423Z,1.50
2022-09-07T18:01:57.558Z,1.43
2022-09-07T18:04:24.703Z,1.40
2022-09-07T18:06:54.498Z,1.87
2022-09-07T18:09:24.700Z,1.40
2022-09-07T18:11:54.015Z,1.67
2022-09-07T18:14:20.862Z,1.90
2022-09-07T18:16:49.819Z,1.77
2022-09-07T18:19:18.356Z,2.57
2022-09-07T18:21:46.195Z,1.83
2022-09-07T18:24:22.313Z,2.87
2022-09-07T18:26:51.998Z,1.90
2022-09-07T18:29:36.797Z,1.57
2022-09-07T18:32:08.917Z,1.77
2022-09-07T18:34:37.948Z,1.63
2022-09-07T18:37:05.270Z,2.03
2022-09-07T18:39:33.514Z,2.70
2022-09-07T18:42:00.484Z,2.83
2022-09-07T18:47:22.252Z,2.30
2022-09-07T18:49:51.500Z,2.27
2022-09-07T18:55:09.874Z,2.30
2022-09-07T18:57:37.309Z,2.90
2022-09-07T19:00:07.006Z,2.30
2022-09-07T19:02:33.917Z,2.90
2022-09-07T19:07:47.660Z,2.30
2022-09-07T19:10:16.819Z,2.63
2022-09-07T19:12:45.877Z,3.20
2022-09-07T19:15:13.999Z,2.93
2022-09-07T19:17:40.970Z,3.23
2022-09-07T19:20:08.267Z,3.50
2022-09-07T19:22:35.104Z,3.40
2022-09-07T19:25:01.890Z,3.13
2022-09-07T19:27:28.702Z,4.07
2022-09-07T19:29:55.643Z,4.10
2022-09-07T19:32:25.542Z,3.83
2022-09-07T19:34:55.647Z,3.40
2022-09-07T19:37:25.986Z,3.27
2022-09-07T19:39:56.784Z,3.77
2022-09-07T19:42:24.877Z,3.50
2022-09-07T19:44:52.907Z,3.77
2022-09-07T19:47:20.419Z,3.73
2022-09-07T19:49:47.263Z,3.50
2022-09-07T19:52:14.143Z,3.57
2022-09-07T19:54:40.922Z,4.67
2022-09-07T19:57:07.965Z,4.37
2022-09-07T19:59:34.822Z,3.10
2022-09-07T20:02:02.229Z,3.10
2022-09-07T20:04:29.216Z,3.50
2022-09-07T20:06:56.381Z,3.67
2022-09-07T20:09:23.509Z,3.70
2022-09-07T20:11:50.358Z,3.43
2022-09-07T20:14:17.680Z,3.10
2022-09-07T20:16:44.661Z,2.67
2022-09-07T20:19:14.883Z,3.20
2022-09-07T20:21:42.602Z,3.70
2022-09-07T20:24:12.285Z,3.03
2022-09-07T20:26:39.201Z,3.33
2022-09-07T20:29:26.048Z,2.90
2022-09-07T20:31:53.966Z,4.00
2022-09-07T20:34:21.101Z,3.00
2022-09-07T20:36:50.457Z,3.40
2022-09-07T20:39:17.565Z,2.60
2022-09-07T20:41:44.581Z,2.87
2022-09-07T20:44:11.526Z,3.80
2022-09-07T20:46:38.688Z,2.90
2022-09-07T20:49:05.762Z,3.80
2022-09-07T20:51:32.829Z,4.03
2022-09-07T20:53:59.820Z,3.70
2022-09-07T20:56:28.159Z,3.70
2022-09-07T20:59:02.121Z,2.60
2022-09-07T21:01:31.225Z,3.40
2022-09-07T21:04:00.478Z,3.67
2022-09-07T21:06:28.513Z,3.20
2022-09-07T21:08:57.213Z,3.10
2022-09-07T21:11:29.420Z,3.10
2022-09-07T21:13:58.691Z,2.60
2022-09-07T21:16:26.132Z,3.50
2022-09-07T21:18:57.876Z,2.80
2022-09-07T21:21:27.314Z,3.20
2022-09-07T21:23:59.574Z,2.97
2022-09-07T21:26:28.273Z,4.07
2022-09-07T21:29:03.781Z,4.60
2022-09-07T21:31:33.436Z,3.37
2022-09-07T21:34:01.418Z,3.20
2022-09-07T21:36:29.283Z,3.20
2022-09-07T21:38:56.129Z,3.07
2022-09-07T21:41:24.830Z,4.03
2022-09-07T21:43:56.172Z,3.37
2022-09-07T21:46:24.260Z,2.97
2022-09-07T21:48:51.169Z,3.03
2022-09-07T21:51:18.113Z,2.87
2022-09-07T21:53:45.186Z,3.07
2022-09-07T21:56:14.303Z,3.10
2022-09-07T21:58:41.219Z,3.13
2022-09-07T22:01:22.181Z,3.23
2022-09-07T22:03:57.114Z,2.83
2022-09-07T22:06:25.053Z,3.37
2022-09-07T22:08:51.914Z,3.67
2022-09-07T22:11:20.553Z,3.93
2022-09-07T22:13:47.812Z,2.90
2022-09-07T22:16:15.264Z,3.77
2022-09-07T22:18:46.282Z,3.50
2022-09-07T22:21:19.209Z,3.40
2022-09-07T22:23:49.299Z,3.80
2022-09-07T22:26:19.481Z,3.50
2022-09-07T22:28:46.329Z,3.87
2022-09-07T22:31:13.203Z,3.30
2022-09-07T22:33:41.315Z,4.67
2022-09-07T22:36:23.343Z,3.53
2022-09-07T22:38:53.297Z,4.10
2022-09-07T22:41:22.677Z,4.53
2022-09-07T22:43:51.108Z,4.90
2022-09-07T22:46:20.170Z,3.40
2022-09-07T22:48:47.383Z,3.60
2022-09-07T22:51:14.628Z,4.57
2022-09-07T22:53:43.301Z,3.90
2022-09-07T22:56:13.777Z,4.37
2022-09-07T22:58:45.681Z,4.13
2022-09-07T23:01:12.869Z,3.77
2022-09-07T23:03:39.969Z,3.50
2022-09-07T23:06:07.050Z,3.87
2022-09-07T23:08:33.848Z,3.90
2022-09-07T23:11:05.227Z,4.63
2022-09-07T23:13:33.328Z,4.17
2022-09-07T23:16:07.478Z,4.80
2022-09-07T23:18:34.835Z,4.27
2022-09-07T23:21:02.626Z,4.10
2022-09-07T23:23:29.818Z,4.20
2022-09-07T23:25:56.908Z,3.50
2022-09-07T23:28:23.681Z,4.57
2022-09-07T23:30:51.541Z,4.00
2022-09-07T23:33:18.691Z,3.83
2022-09-07T23:35:59.744Z,3.90
2022-09-07T23:38:27.383Z,4.40
2022-09-07T23:40:55.133Z,4.87
2022-09-07T23:43:24.091Z,3.77
2022-09-07T23:45:51.013Z,4.27
2022-09-07T23:48:17.832Z,3.80
2022-09-07T23:50:45.494Z,5.10
2022-09-07T23:53:13.223Z,4.73
2022-09-07T23:55:40.371Z,4.80
2022-09-07T23:58:08.554Z,4.60
